createdAt,value
2017-02-26T00:00:14.529Z,73.04
2017-02-26T00:00:55.191Z,72.95
2017-02-26T00:01:35.842Z,72.95
2017-02-26T00:02:16.556Z,72.85
2017-02-26T00:02:58.282Z,73.04
2017-02-26T00:03:38.926Z,72.75
2017-02-26T00:04:19.578Z,72.47
2017-02-26T00:05:00.319Z,72.28
2017-02-26T00:05:41.021Z,72.66
2017-02-26T00:06:21.639Z,72.95
2017-02-26T00:07:02.293Z,73.04
2017-02-26T00:07:42.944Z,72.66
2017-02-26T00:08:23.653Z,72.66
2017-02-26T00:09:04.271Z,72.47
2017-02-26T00:09:44.910Z,72.75
2017-02-26T00:10:25.592Z,72.56
2017-02-26T00:11:06.216Z,72.56
2017-02-26T00:11:46.865Z,72.75
2017-02-26T00:12:27.527Z,72.85
2017-02-26T00:13:08.167Z,72.95
2017-02-26T00:13:48.858Z,72.95
2017-02-26T00:14:29.413Z,72.75
2017-02-26T00:15:10.071Z,72.66
2017-02-26T00:15:50.758Z,72.66
2017-02-26T00:16:31.342Z,73.04
2017-02-26T00:17:11.923Z,72.66
2017-02-26T00:17:52.582Z,73.04
2017-02-26T00:18:33.274Z,72.75
2017-02-26T00:19:13.943Z,72.95
2017-02-26T00:19:54.596Z,72.56
2017-02-26T00:20:35.258Z,72.85
2017-02-26T00:21:17.848Z,73.14
2017-02-26T00:21:58.497Z,73.04
2017-02-26T00:22:39.167Z,72.95
2017-02-26T00:23:19.830Z,72.85
2017-02-26T00:24:00.470Z,72.85
2017-02-26T00:24:41.114Z,73.04
2017-02-26T00:25:21.781Z,72.56
2017-02-26T00:26:02.437Z,72.75
2017-02-26T00:26:43.093Z,72.95
2017-02-26T00:27:23.759Z,72.56
2017-02-26T00:28:04.388Z,72.56
2017-02-26T00:28:44.973Z,72.47
2017-02-26T00:29:25.572Z,72.66
2017-02-26T00:30:06.210Z,72.56
2017-02-26T00:30:46.864Z,72.95
2017-02-26T00:31:27.553Z,72.56
2017-02-26T00:32:08.134Z,73.04
2017-02-26T00:32:48.787Z,72.66
2017-02-26T00:33:29.474Z,73.04
2017-02-26T00:34:10.059Z,73.04
2017-02-26T00:34:50.796Z,72.95
2017-02-26T00:35:31.482Z,73.33
2017-02-26T00:36:12.105Z,72.75
2017-02-26T00:36:53.768Z,73.04
2017-02-26T00:37:34.463Z,72.95
2017-02-26T00:38:15.024Z,72.66
2017-02-26T00:38:55.709Z,73.14
2017-02-26T00:39:36.412Z,73.14
2017-02-26T00:40:17.067Z,72.75
2017-02-26T00:40:57.746Z,72.47
2017-02-26T00:41:38.372Z,72.66
2017-02-26T00:42:19.032Z,72.75
2017-02-26T00:42:59.679Z,73.04
2017-02-26T00:43:40.331Z,72.75
2017-02-26T00:44:21.004Z,72.75
2017-02-26T00:45:01.641Z,72.75
2017-02-26T00:45:42.282Z,72.75
2017-02-26T00:46:22.948Z,72.95
2017-02-26T00:47:03.595Z,72.75
2017-02-26T00:47:44.281Z,72.81
2017-02-26T00:48:24.901Z,72.85
2017-02-26T00:49:05.596Z,72.75
2017-02-26T00:49:46.169Z,73.1
2017-02-26T00:50:26.781Z,72.95
2017-02-26T00:51:07.408Z,72.95
2017-02-26T00:51:47.997Z,72.81
2017-02-26T00:52:28.645Z,72.85
2017-02-26T00:53:09.267Z,73.71
2017-02-26T00:53:49.842Z,73.57
2017-02-26T00:54:30.577Z,73.52
2017-02-26T00:55:11.257Z,73.48
2017-02-26T00:55:52.978Z,73.52
2017-02-26T00:56:34.577Z,73.29
2017-02-26T00:57:15.253Z,73.38
2017-02-26T00:57:55.909Z,73.29
2017-02-26T00:58:36.610Z,73.29
2017-02-26T00:59:17.200Z,73.38
2017-02-26T00:59:57.866Z,73.42
2017-02-26T01:00:38.459Z,73.42
2017-02-26T01:01:19.141Z,73.42
2017-02-26T01:01:59.804Z,73.52
2017-02-26T01:02:40.416Z,73.38
2017-02-26T01:03:21.027Z,73.38
2017-02-26T01:04:01.724Z,73.38
2017-02-26T01:04:42.309Z,73.61
2017-02-26T01:05:22.966Z,73.57
2017-02-26T01:06:03.574Z,73.48
2017-02-26T01:06:44.229Z,73.33
2017-02-26T01:07:24.898Z,73.38
2017-02-26T01:08:05.578Z,73.33
2017-02-26T01:08:46.150Z,73.42
2017-02-26T01:09:26.808Z,73.29
2017-02-26T01:10:07.432Z,73.23
2017-02-26T01:10:48.020Z,73.57
2017-02-26T01:11:28.661Z,73.33
2017-02-26T01:12:09.276Z,73.29
2017-02-26T01:12:49.870Z,73.71
2017-02-26T01:13:30.505Z,73.42
2017-02-26T01:14:11.134Z,73.61
2017-02-26T01:14:51.758Z,73.61
2017-02-26T01:15:32.391Z,73.61
2017-02-26T01:16:13.008Z,73.42
2017-02-26T01:16:53.679Z,73.52
2017-02-26T01:17:34.355Z,73.29
2017-02-26T01:18:14.982Z,73.48
2017-02-26T01:18:55.638Z,73.38
2017-02-26T01:19:36.282Z,73.57
2017-02-26T01:20:16.939Z,73.71
2017-02-26T01:20:57.587Z,73.52
2017-02-26T01:21:38.243Z,73.67
2017-02-26T01:22:21.176Z,73.19
2017-02-26T01:23:01.891Z,73.23
2017-02-26T01:23:42.739Z,73.38
2017-02-26T01:24:23.499Z,73.38
2017-02-26T01:25:04.140Z,73.52
2017-02-26T01:25:44.809Z,73.52
2017-02-26T01:26:25.410Z,73.42
2017-02-26T01:27:06.039Z,73.52
2017-02-26T01:27:46.713Z,73.52
2017-02-26T01:28:27.307Z,73.33
2017-02-26T01:29:07.877Z,73.8
2017-02-26T01:29:48.940Z,73.8
2017-02-26T01:30:29.521Z,73.76
2017-02-26T01:31:10.128Z,73.8
2017-02-26T01:31:50.694Z,73.57
2017-02-26T01:32:31.351Z,73.71
2017-02-26T01:33:12.078Z,73.9
2017-02-26T01:33:52.732Z,74.05
2017-02-26T01:34:34.237Z,74.33
2017-02-26T01:35:14.888Z,73.76
2017-02-26T01:35:55.520Z,74.15
2017-02-26T01:36:36.194Z,73.99
2017-02-26T01:37:16.850Z,74.05
2017-02-26T01:37:57.498Z,74.15
2017-02-26T01:38:38.129Z,74.08
2017-02-26T01:39:18.834Z,74.05
2017-02-26T01:39:59.448Z,74.66
2017-02-26T01:40:40.121Z,74.62
2017-02-26T01:41:20.745Z,74.56
2017-02-26T01:42:01.424Z,74.56
2017-02-26T01:42:42.075Z,75.09
2017-02-26T01:43:23.751Z,74.81
2017-02-26T01:44:04.390Z,75.09
2017-02-26T01:44:45.030Z,74.71
2017-02-26T01:45:25.617Z,75
2017-02-26T01:46:06.260Z,75
2017-02-26T01:46:46.880Z,75
2017-02-26T01:47:27.457Z,75.47
2017-02-26T01:48:08.122Z,75.38
2017-02-26T01:48:48.735Z,75.47
2017-02-26T01:49:29.312Z,75.38
2017-02-26T01:50:09.972Z,75.57
2017-02-26T01:50:50.548Z,75.47
2017-02-26T01:51:33.198Z,75.95
2017-02-26T01:52:13.821Z,75.76
2017-02-26T01:52:54.452Z,75.67
2017-02-26T01:53:35.115Z,75.67
2017-02-26T01:54:15.799Z,76.04
2017-02-26T01:54:56.389Z,76.23
2017-02-26T01:55:37.029Z,76.04
2017-02-26T01:56:17.618Z,76.14
2017-02-26T01:56:58.324Z,76.32
2017-02-26T01:57:39.837Z,76.14
2017-02-26T01:58:20.464Z,76.52
2017-02-26T01:59:01.144Z,76.52
2017-02-26T01:59:42.765Z,76.61
2017-02-26T02:00:23.350Z,76.99
2017-02-26T02:01:04.002Z,76.23
2017-02-26T02:01:44.678Z,76.61
2017-02-26T02:02:25.277Z,76.32
2017-02-26T02:03:05.850Z,76.52
2017-02-26T02:03:46.502Z,76.71
2017-02-26T02:04:27.190Z,76.52
2017-02-26T02:05:07.839Z,76.52
2017-02-26T02:05:48.503Z,76.61
2017-02-26T02:06:29.156Z,76.42
2017-02-26T02:07:09.807Z,76.42
2017-02-26T02:07:50.455Z,76.52
2017-02-26T02:08:31.113Z,76.32
2017-02-26T02:09:11.767Z,76.42
2017-02-26T02:09:52.407Z,76.23
2017-02-26T02:10:33.040Z,76.42
2017-02-26T02:11:13.678Z,76.32
2017-02-26T02:11:54.336Z,76.32
2017-02-26T02:12:34.987Z,76.52
2017-02-26T02:13:15.698Z,76.42
2017-02-26T02:13:56.331Z,76.52
2017-02-26T02:14:36.942Z,76.23
2017-02-26T02:15:17.540Z,76.61
2017-02-26T02:15:59.188Z,76.23
2017-02-26T02:16:39.754Z,76.42
2017-02-26T02:17:20.384Z,76.32
2017-02-26T02:18:01.418Z,76.61
2017-02-26T02:18:42.078Z,76.71
2017-02-26T02:19:22.648Z,76.61
2017-02-26T02:20:03.289Z,76.71
2017-02-26T02:20:43.950Z,77.09
2017-02-26T02:21:24.606Z,76.71
2017-02-26T02:22:05.328Z,77.28
2017-02-26T02:22:46.016Z,77.09
2017-02-26T02:23:26.667Z,77.37
2017-02-26T02:24:07.328Z,76.9
2017-02-26T02:24:47.998Z,77.18
2017-02-26T02:25:28.659Z,77.09
2017-02-26T02:26:09.295Z,77.18
2017-02-26T02:26:49.952Z,77.37
2017-02-26T02:27:30.584Z,77.18
2017-02-26T02:28:11.260Z,77.28
2017-02-26T02:28:51.878Z,77.09
2017-02-26T02:29:32.589Z,76.9
2017-02-26T02:30:13.193Z,76.9
2017-02-26T02:30:53.882Z,77.18
2017-02-26T02:31:34.501Z,77.47
2017-02-26T02:32:15.158Z,77.28
2017-02-26T02:32:55.802Z,77.37
2017-02-26T02:33:36.497Z,77.28
2017-02-26T02:34:17.121Z,77.56
2017-02-26T02:34:57.809Z,77.37
2017-02-26T02:35:38.419Z,77.47
2017-02-26T02:36:19.100Z,77.37
2017-02-26T02:36:59.750Z,77.37
2017-02-26T02:37:40.368Z,77.56
2017-02-26T02:38:21.042Z,77.66
2017-02-26T02:39:01.707Z,77.66
2017-02-26T02:39:42.338Z,77.56
2017-02-26T02:40:22.989Z,77.75
2017-02-26T02:41:03.639Z,77.28
2017-02-26T02:41:44.295Z,77.84
2017-02-26T02:42:25.975Z,77.66
2017-02-26T02:43:06.625Z,77.47
2017-02-26T02:43:47.295Z,77.56
2017-02-26T02:44:27.953Z,77.66
2017-02-26T02:45:08.596Z,77.47
2017-02-26T02:45:49.233Z,77.47
2017-02-26T02:46:29.969Z,77.84
2017-02-26T02:47:10.648Z,77.84
2017-02-26T02:47:51.300Z,77.84
2017-02-26T02:48:31.951Z,77.84
2017-02-26T02:49:12.602Z,77.84
2017-02-26T02:49:53.266Z,77.47
2017-02-26T02:50:34.361Z,77.84
2017-02-26T02:51:14.985Z,78.03
2017-02-26T02:51:55.612Z,77.56
2017-02-26T02:52:36.278Z,77.94
2017-02-26T02:53:16.943Z,77.66
2017-02-26T02:53:59.120Z,78.03
2017-02-26T02:54:39.824Z,77.56
2017-02-26T02:55:20.492Z,78.03
2017-02-26T02:56:01.099Z,78.03
2017-02-26T02:56:42.787Z,77.66
2017-02-26T02:57:23.451Z,77.75
2017-02-26T02:58:04.113Z,77.75
2017-02-26T02:58:44.744Z,77.84
2017-02-26T02:59:25.372Z,77.84
2017-02-26T03:00:06.044Z,77.94
2017-02-26T03:00:46.728Z,77.94
2017-02-26T03:01:27.325Z,78.23
2017-02-26T03:02:07.993Z,78.23
2017-02-26T03:02:48.630Z,78.03
2017-02-26T03:03:29.327Z,77.94
2017-02-26T03:04:09.984Z,77.84
2017-02-26T03:04:50.599Z,77.84
2017-02-26T03:05:31.297Z,77.84
2017-02-26T03:06:11.890Z,78.42
2017-02-26T03:06:52.548Z,78.51
2017-02-26T03:07:33.226Z,78.42
2017-02-26T03:08:13.878Z,78.23
2017-02-26T03:08:54.508Z,78.23
2017-02-26T03:09:35.197Z,78.32
2017-02-26T03:10:15.827Z,78.23
2017-02-26T03:10:56.476Z,78.23
2017-02-26T03:11:37.113Z,78.42
2017-02-26T03:12:17.829Z,78.51
2017-02-26T03:12:58.422Z,77.84
2017-02-26T03:13:39.087Z,77.84
2017-02-26T03:14:19.728Z,77.84
2017-02-26T03:15:00.340Z,78.13
2017-02-26T03:15:41.022Z,77.84
2017-02-26T03:16:21.580Z,77.94
2017-02-26T03:17:02.250Z,78.03
2017-02-26T03:17:42.927Z,78.23
2017-02-26T03:18:23.529Z,77.84
2017-02-26T03:19:04.107Z,77.84
2017-02-26T03:19:44.745Z,78.23
2017-02-26T03:20:25.364Z,77.75
2017-02-26T03:21:06.039Z,77.94
2017-02-26T03:21:46.618Z,77.94
2017-02-26T03:22:27.257Z,77.84
2017-02-26T03:23:07.876Z,77.84
2017-02-26T03:23:48.547Z,77.84
2017-02-26T03:24:29.140Z,77.84
2017-02-26T03:25:09.814Z,77.75
2017-02-26T03:25:50.494Z,78.13
2017-02-26T03:26:31.077Z,78.23
2017-02-26T03:27:11.742Z,77.94
2017-02-26T03:27:52.400Z,77.84
2017-02-26T03:28:33.078Z,77.84
2017-02-26T03:29:13.691Z,77.75
2017-02-26T03:29:54.333Z,77.66
2017-02-26T03:30:34.992Z,77.75
2017-02-26T03:31:15.638Z,77.75
2017-02-26T03:31:56.328Z,77.75
2017-02-26T03:32:36.961Z,77.75
2017-02-26T03:33:17.633Z,77.66
2017-02-26T03:33:59.303Z,77.94
2017-02-26T03:34:39.935Z,77.84
2017-02-26T03:35:20.626Z,78.03
2017-02-26T03:36:01.325Z,77.66
2017-02-26T03:36:41.895Z,77.66
2017-02-26T03:37:22.569Z,77.47
2017-02-26T03:38:03.256Z,77.56
2017-02-26T03:38:43.931Z,77.56
2017-02-26T03:39:24.491Z,77.66
2017-02-26T03:40:05.155Z,77.56
2017-02-26T03:40:45.806Z,77.75
2017-02-26T03:41:26.374Z,77.56
2017-02-26T03:42:07.027Z,77.75
2017-02-26T03:42:48.064Z,77.47
2017-02-26T03:43:28.649Z,77.47
2017-02-26T03:44:09.293Z,77.56
2017-02-26T03:44:49.908Z,77.47
2017-02-26T03:45:30.502Z,77.66
2017-02-26T03:46:11.144Z,77.84
2017-02-26T03:46:51.775Z,77.75
2017-02-26T03:47:32.355Z,77.66
2017-02-26T03:48:13.010Z,77.66
2017-02-26T03:48:53.725Z,77.66
2017-02-26T03:49:34.319Z,77.37
2017-02-26T03:50:15.995Z,77.47
2017-02-26T03:50:56.614Z,77.47
2017-02-26T03:51:37.190Z,77.28
2017-02-26T03:52:17.839Z,77.18
2017-02-26T03:52:58.572Z,77.18
2017-02-26T03:53:39.152Z,77.09
2017-02-26T03:54:19.793Z,77.28
2017-02-26T03:55:00.434Z,77.18
2017-02-26T03:55:41.077Z,77.18
2017-02-26T03:56:21.739Z,77.09
2017-02-26T03:57:02.381Z,77.28
2017-02-26T03:57:43.039Z,76.9
2017-02-26T03:58:23.692Z,76.99
2017-02-26T03:59:04.341Z,77.28
2017-02-26T03:59:45.001Z,77.28
2017-02-26T04:00:26.675Z,77.18
2017-02-26T04:01:07.327Z,77.28
2017-02-26T04:01:47.983Z,77.09
2017-02-26T04:02:28.632Z,77.28
2017-02-26T04:03:09.215Z,76.99
2017-02-26T04:03:49.839Z,76.99
2017-02-26T04:04:30.484Z,76.9
2017-02-26T04:05:11.150Z,76.8
2017-02-26T04:05:51.831Z,76.9
2017-02-26T04:06:32.442Z,76.71
2017-02-26T04:07:13.095Z,76.71
2017-02-26T04:07:53.749Z,76.61
2017-02-26T04:08:34.428Z,76.8
2017-02-26T04:09:15.054Z,76.8
2017-02-26T04:09:55.641Z,76.61
2017-02-26T04:10:36.287Z,76.71
2017-02-26T04:11:16.982Z,76.52
2017-02-26T04:11:57.564Z,76.61
2017-02-26T04:12:38.141Z,76.61
2017-02-26T04:13:18.780Z,76.52
2017-02-26T04:13:59.386Z,76.61
2017-02-26T04:14:40.072Z,76.8
2017-02-26T04:15:20.731Z,77.09
2017-02-26T04:16:01.383Z,76.42
2017-02-26T04:16:42.037Z,76.71
2017-02-26T04:17:22.689Z,76.71
2017-02-26T04:18:03.342Z,76.71
2017-02-26T04:18:43.991Z,76.71
2017-02-26T04:19:24.661Z,76.61
2017-02-26T04:20:05.300Z,76.61
2017-02-26T04:20:45.959Z,76.9
2017-02-26T04:21:26.605Z,76.61
2017-02-26T04:22:07.252Z,76.71
2017-02-26T04:22:47.914Z,76.9
2017-02-26T04:23:28.578Z,76.42
2017-02-26T04:24:09.218Z,76.42
2017-02-26T04:24:49.877Z,76.23
2017-02-26T04:25:30.526Z,76.8
2017-02-26T04:26:11.186Z,76.9
2017-02-26T04:26:52.863Z,76.9
2017-02-26T04:27:34.533Z,76.71
2017-02-26T04:28:15.593Z,76.52
2017-02-26T04:28:56.242Z,76.61
2017-02-26T04:29:37.312Z,76.61
2017-02-26T04:30:17.972Z,76.61
2017-02-26T04:30:58.618Z,77.09
2017-02-26T04:31:39.270Z,76.71
2017-02-26T04:32:19.924Z,76.8
2017-02-26T04:33:00.575Z,76.71
2017-02-26T04:33:41.230Z,76.61
2017-02-26T04:34:21.880Z,76.61
2017-02-26T04:35:02.459Z,76.61
2017-02-26T04:35:43.151Z,76.71
2017-02-26T04:36:23.793Z,76.9
2017-02-26T04:37:04.391Z,76.9
2017-02-26T04:37:44.956Z,76.9
2017-02-26T04:38:25.601Z,76.9
2017-02-26T04:39:06.611Z,76.71
2017-02-26T04:39:48.332Z,76.71
2017-02-26T04:40:29.008Z,76.42
2017-02-26T04:41:10.661Z,76.52
2017-02-26T04:41:51.318Z,76.61
2017-02-26T04:42:31.968Z,76.61
2017-02-26T04:43:12.617Z,76.8
2017-02-26T04:43:53.272Z,76.42
2017-02-26T04:44:34.956Z,76.71
2017-02-26T04:45:15.522Z,76.61
2017-02-26T04:45:56.179Z,76.23
2017-02-26T04:46:36.755Z,76.42
2017-02-26T04:47:17.362Z,76.52
2017-02-26T04:47:57.933Z,76.42
2017-02-26T04:48:38.588Z,76.32
2017-02-26T04:49:19.180Z,76.23
2017-02-26T04:50:00.788Z,76.8
2017-02-26T04:50:41.438Z,76.42
2017-02-26T04:51:22.092Z,76.23
2017-02-26T04:52:02.746Z,76.61
2017-02-26T04:52:44.832Z,76.42
2017-02-26T04:53:25.490Z,76.52
2017-02-26T04:54:06.140Z,76.71
2017-02-26T04:54:46.797Z,76.52
2017-02-26T04:55:27.461Z,76.42
2017-02-26T04:56:08.104Z,76.42
2017-02-26T04:56:49.157Z,76.52
2017-02-26T04:57:29.810Z,76.42
2017-02-26T04:58:10.451Z,76.42
2017-02-26T04:58:51.015Z,76.42
2017-02-26T04:59:31.667Z,76.71
2017-02-26T05:00:12.238Z,76.71
2017-02-26T05:00:52.896Z,76.9
2017-02-26T05:01:33.489Z,76.61
2017-02-26T05:02:14.064Z,76.71
2017-02-26T05:02:54.641Z,76.71
2017-02-26T05:03:35.314Z,76.71
2017-02-26T05:04:15.993Z,76.71
2017-02-26T05:04:56.582Z,76.8
2017-02-26T05:05:37.242Z,76.8
2017-02-26T05:06:17.905Z,76.71
2017-02-26T05:06:58.551Z,76.9
2017-02-26T05:07:39.215Z,76.8
2017-02-26T05:08:19.952Z,76.52
2017-02-26T05:09:01.029Z,76.99
2017-02-26T05:09:41.663Z,76.71
2017-02-26T05:10:22.245Z,76.8
2017-02-26T05:11:02.886Z,76.8
2017-02-26T05:11:43.547Z,76.8
2017-02-26T05:12:24.201Z,76.61
2017-02-26T05:13:04.857Z,76.99
2017-02-26T05:13:45.500Z,76.8
2017-02-26T05:14:26.154Z,76.52
2017-02-26T05:15:06.792Z,76.61
2017-02-26T05:15:47.363Z,76.61
2017-02-26T05:16:28.050Z,76.8
2017-02-26T05:17:08.684Z,76.8
2017-02-26T05:17:49.256Z,76.71
2017-02-26T05:18:29.864Z,76.9
2017-02-26T05:19:11.538Z,76.9
2017-02-26T05:19:52.099Z,77.28
2017-02-26T05:20:32.746Z,77.28
2017-02-26T05:21:13.395Z,77.56
2017-02-26T05:21:54.080Z,77.37
2017-02-26T05:22:34.730Z,76.8
2017-02-26T05:23:15.383Z,76.71
2017-02-26T05:23:56.023Z,76.61
2017-02-26T05:24:36.684Z,76.8
2017-02-26T05:25:17.313Z,76.99
2017-02-26T05:25:57.898Z,76.8
2017-02-26T05:26:38.533Z,76.61
2017-02-26T05:27:19.168Z,76.9
2017-02-26T05:27:59.727Z,76.71
2017-02-26T05:28:40.388Z,76.71
2017-02-26T05:29:22.041Z,76.61
2017-02-26T05:30:02.602Z,76.61
2017-02-26T05:30:43.269Z,76.8
2017-02-26T05:31:23.920Z,76.71
2017-02-26T05:32:04.587Z,76.61
2017-02-26T05:32:45.219Z,76.71
2017-02-26T05:33:25.870Z,76.71
2017-02-26T05:34:06.543Z,76.9
2017-02-26T05:34:47.180Z,76.8
2017-02-26T05:35:27.780Z,76.8
2017-02-26T05:36:08.494Z,76.8
2017-02-26T05:36:49.078Z,76.8
2017-02-26T05:37:29.712Z,76.8
2017-02-26T05:38:10.382Z,76.52
2017-02-26T05:38:50.976Z,76.61
2017-02-26T05:39:31.543Z,76.99
2017-02-26T05:40:12.206Z,76.9
2017-02-26T05:40:52.849Z,76.8
2017-02-26T05:41:33.504Z,77.47
2017-02-26T05:42:14.191Z,77.37
2017-02-26T05:42:54.829Z,77.09
2017-02-26T05:43:35.475Z,77.09
2017-02-26T05:44:17.176Z,77.28
2017-02-26T05:44:57.784Z,77.28
2017-02-26T05:45:38.572Z,77.18
2017-02-26T05:46:19.128Z,77.28
2017-02-26T05:46:59.766Z,77.56
2017-02-26T05:47:40.389Z,76.9
2017-02-26T05:48:21.049Z,77.28
2017-02-26T05:49:02.734Z,77.09
2017-02-26T05:49:43.285Z,77.28
2017-02-26T05:50:23.940Z,77.09
2017-02-26T05:51:04.592Z,77.09
2017-02-26T05:51:45.249Z,77.09
2017-02-26T05:52:25.891Z,77.18
2017-02-26T05:53:06.564Z,77.09
2017-02-26T05:53:47.225Z,77.18
2017-02-26T05:54:27.868Z,77.28
2017-02-26T05:55:08.524Z,77.37
2017-02-26T05:55:49.152Z,77.37
2017-02-26T05:56:29.730Z,76.8
2017-02-26T05:57:10.369Z,77.18
2017-02-26T05:57:51.004Z,77.18
2017-02-26T05:58:31.558Z,77.18
2017-02-26T05:59:12.241Z,76.9
2017-02-26T05:59:52.859Z,77.56
2017-02-26T06:00:33.423Z,77.66
2017-02-26T06:01:14.111Z,77.66
2017-02-26T06:01:54.788Z,77.47
2017-02-26T06:02:35.480Z,78.03
2017-02-26T06:03:16.046Z,78.03
2017-02-26T06:03:56.620Z,77.66
2017-02-26T06:04:37.249Z,77.94
2017-02-26T06:05:17.848Z,78.61
2017-02-26T06:05:58.430Z,78.23
2017-02-26T06:06:38.991Z,78.42
2017-02-26T06:07:19.653Z,78.32
2017-02-26T06:08:00.333Z,78.13
2017-02-26T06:08:40.962Z,78.42
2017-02-26T06:09:21.533Z,78.51
2017-02-26T06:10:02.168Z,78.51
2017-02-26T06:10:42.814Z,78.7
2017-02-26T06:11:23.496Z,78.51
2017-02-26T06:12:04.158Z,78.7
2017-02-26T06:12:44.824Z,78.51
2017-02-26T06:13:25.459Z,78.51
2017-02-26T06:14:06.118Z,78.51
2017-02-26T06:14:46.786Z,78.51
2017-02-26T06:15:27.464Z,78.32
2017-02-26T06:16:08.028Z,78.51
2017-02-26T06:16:48.703Z,78.51
2017-02-26T06:17:29.398Z,78.51
2017-02-26T06:18:10.998Z,78.32
2017-02-26T06:18:51.561Z,78.32
2017-02-26T06:19:32.216Z,78.42
2017-02-26T06:20:12.882Z,79.08
2017-02-26T06:20:53.452Z,79.08
2017-02-26T06:21:34.095Z,79.17
2017-02-26T06:22:14.723Z,79.08
2017-02-26T06:22:55.312Z,79.08
2017-02-26T06:23:35.946Z,79.27
2017-02-26T06:24:16.578Z,79.08
2017-02-26T06:24:57.158Z,79.17
2017-02-26T06:25:37.811Z,78.89
2017-02-26T06:26:18.478Z,79.08
2017-02-26T06:26:59.512Z,79.08
2017-02-26T06:27:40.178Z,78.8
2017-02-26T06:28:20.839Z,78.7
2017-02-26T06:29:01.484Z,79.08
2017-02-26T06:29:42.128Z,78.89
2017-02-26T06:30:23.842Z,78.89
2017-02-26T06:31:04.489Z,78.8
2017-02-26T06:31:45.133Z,78.89
2017-02-26T06:32:25.773Z,78.89
2017-02-26T06:33:06.409Z,78.89
2017-02-26T06:33:47.048Z,78.99
2017-02-26T06:34:27.702Z,78.99
2017-02-26T06:35:08.352Z,78.99
2017-02-26T06:35:48.932Z,78.61
2017-02-26T06:36:29.639Z,78.61
2017-02-26T06:37:10.335Z,78.7
2017-02-26T06:37:50.913Z,78.99
2017-02-26T06:38:31.521Z,79.17
2017-02-26T06:39:12.132Z,79.17
2017-02-26T06:39:52.830Z,78.99
2017-02-26T06:40:33.392Z,79.08
2017-02-26T06:41:14.043Z,79.17
2017-02-26T06:41:54.691Z,79.08
2017-02-26T06:42:35.246Z,79.08
2017-02-26T06:43:15.899Z,79.08
2017-02-26T06:43:56.533Z,79.08
2017-02-26T06:44:37.102Z,79.08
2017-02-26T06:45:17.752Z,79.08
2017-02-26T06:45:58.413Z,79.17
2017-02-26T06:46:39.076Z,79.17
2017-02-26T06:47:19.720Z,79.17
2017-02-26T06:48:01.363Z,79.17
2017-02-26T06:48:41.954Z,79.08
2017-02-26T06:49:22.588Z,78.89
2017-02-26T06:50:03.262Z,79.08
2017-02-26T06:50:43.930Z,78.89
2017-02-26T06:51:24.533Z,78.8
2017-02-26T06:52:05.121Z,78.8
2017-02-26T06:52:45.777Z,78.61
2017-02-26T06:53:26.456Z,78.99
2017-02-26T06:54:08.074Z,78.89
2017-02-26T06:54:48.632Z,78.8
2017-02-26T06:55:31.264Z,78.99
2017-02-26T06:56:11.924Z,78.99
2017-02-26T06:56:52.542Z,78.89
2017-02-26T06:57:33.110Z,79.12
2017-02-26T06:58:13.744Z,79.08
2017-02-26T06:58:54.343Z,78.93
2017-02-26T06:59:35.029Z,78.32
2017-02-26T07:00:15.619Z,78.51
2017-02-26T07:00:56.258Z,78.51
2017-02-26T07:01:36.836Z,78.23
2017-02-26T07:02:17.433Z,78.83
2017-02-26T07:02:58.023Z,78.51
2017-02-26T07:03:38.659Z,78.36
2017-02-26T07:04:19.261Z,78.45
2017-02-26T07:04:59.948Z,78.36
2017-02-26T07:05:40.601Z,78.27
2017-02-26T07:06:21.293Z,78.36
2017-02-26T07:07:01.906Z,78.36
2017-02-26T07:07:42.555Z,78.45
2017-02-26T07:08:24.129Z,78.55
2017-02-26T07:09:04.787Z,78.55
2017-02-26T07:09:45.438Z,78.55
2017-02-26T07:10:26.065Z,78.74
2017-02-26T07:11:06.683Z,78.36
2017-02-26T07:11:47.322Z,78.17
2017-02-26T07:12:27.975Z,78.45
2017-02-26T07:13:08.629Z,78.55
2017-02-26T07:13:49.300Z,78.36
2017-02-26T07:14:29.959Z,78.36
2017-02-26T07:15:10.597Z,78.36
2017-02-26T07:15:51.316Z,78.17
2017-02-26T07:16:31.891Z,78.27
2017-02-26T07:17:13.623Z,78.45
2017-02-26T07:17:54.221Z,78.36
2017-02-26T07:18:36.806Z,78.55
2017-02-26T07:19:17.483Z,78.36
2017-02-26T07:19:58.129Z,78.27
2017-02-26T07:20:38.814Z,78.45
2017-02-26T07:21:19.519Z,78.27
2017-02-26T07:22:00.094Z,78.55
2017-02-26T07:22:40.741Z,78.36
2017-02-26T07:23:21.441Z,78.27
2017-02-26T07:24:02.012Z,78.55
2017-02-26T07:24:42.650Z,78.55
2017-02-26T07:25:23.284Z,78.55
2017-02-26T07:26:03.978Z,78.45
2017-02-26T07:26:44.631Z,78.45
2017-02-26T07:27:25.221Z,78.17
2017-02-26T07:28:05.878Z,78.27
2017-02-26T07:28:46.559Z,78.55
2017-02-26T07:29:27.154Z,78.55
2017-02-26T07:30:07.749Z,78.55
2017-02-26T07:30:49.413Z,78.27
2017-02-26T07:31:30.093Z,78.27
2017-02-26T07:32:10.681Z,78.27
2017-02-26T07:32:51.382Z,78.55
2017-02-26T07:33:33.028Z,78.55
2017-02-26T07:34:13.683Z,78.36
2017-02-26T07:34:54.351Z,78.36
2017-02-26T07:35:35.004Z,78.08
2017-02-26T07:36:15.662Z,78.08
2017-02-26T07:36:56.296Z,78.27
2017-02-26T07:37:37.148Z,78.17
2017-02-26T07:38:17.818Z,78.27
2017-02-26T07:38:58.486Z,78.27
2017-02-26T07:39:39.111Z,78.36
2017-02-26T07:40:19.784Z,78.36
2017-02-26T07:41:00.422Z,78.36
2017-02-26T07:41:41.090Z,78.27
2017-02-26T07:42:21.723Z,78.27
2017-02-26T07:43:02.376Z,77.98
2017-02-26T07:43:43.050Z,78.36
2017-02-26T07:44:23.686Z,78.36
2017-02-26T07:45:04.333Z,78.36
2017-02-26T07:45:44.939Z,78.27
2017-02-26T07:46:25.509Z,78.27
2017-02-26T07:47:06.087Z,78.17
2017-02-26T07:47:46.785Z,78.36
2017-02-26T07:48:27.446Z,78.27
2017-02-26T07:49:08.062Z,78.45
2017-02-26T07:49:48.698Z,78.08
2017-02-26T07:50:29.362Z,77.89
2017-02-26T07:51:10.058Z,78.08
2017-02-26T07:51:50.666Z,77.89
2017-02-26T07:52:31.576Z,77.92
2017-02-26T07:53:12.178Z,78.27
2017-02-26T07:53:52.873Z,78.3
2017-02-26T07:54:34.527Z,77.92
2017-02-26T07:55:15.161Z,78.02
2017-02-26T07:55:55.823Z,78.3
2017-02-26T07:56:36.416Z,77.98
2017-02-26T07:57:16.998Z,77.89
2017-02-26T07:57:57.592Z,78.08
2017-02-26T07:58:38.205Z,78.11
2017-02-26T07:59:18.811Z,77.92
2017-02-26T07:59:59.477Z,78.11
2017-02-26T08:00:40.138Z,78.11
2017-02-26T08:01:20.842Z,78.21
2017-02-26T08:02:01.454Z,78.11
2017-02-26T08:02:43.134Z,78.11
2017-02-26T08:03:23.782Z,77.73
2017-02-26T08:04:04.452Z,78.02
2017-02-26T08:04:45.065Z,78.02
2017-02-26T08:05:25.640Z,77.92
2017-02-26T08:06:06.295Z,77.92
2017-02-26T08:06:46.974Z,77.92
2017-02-26T08:07:27.573Z,78.5
2017-02-26T08:08:08.135Z,78.59
2017-02-26T08:08:48.784Z,77.92
2017-02-26T08:09:29.380Z,78.5
2017-02-26T08:10:09.989Z,78.59
2017-02-26T08:10:50.581Z,78.4
2017-02-26T08:11:31.523Z,78.5
2017-02-26T08:12:12.203Z,78.21
2017-02-26T08:12:52.796Z,78.4
2017-02-26T08:13:33.389Z,78.4
2017-02-26T08:14:14.019Z,78.88
2017-02-26T08:14:54.734Z,78.59
2017-02-26T08:15:36.326Z,78.4
2017-02-26T08:16:16.905Z,79.25
2017-02-26T08:16:58.599Z,78.88
2017-02-26T08:17:39.284Z,78.88
2017-02-26T08:18:19.872Z,79.25
2017-02-26T08:19:00.457Z,79.44
2017-02-26T08:19:41.076Z,79.35
2017-02-26T08:20:21.699Z,79.35
2017-02-26T08:21:02.272Z,79.25
2017-02-26T08:21:42.821Z,79.25
2017-02-26T08:22:23.493Z,79.35
2017-02-26T08:23:04.123Z,79.25
2017-02-26T08:23:44.793Z,79.44
2017-02-26T08:24:25.378Z,79.83
2017-02-26T08:25:06.018Z,79.73
2017-02-26T08:25:46.708Z,79.92
2017-02-26T08:26:27.298Z,79.83
2017-02-26T08:27:07.912Z,79.63
2017-02-26T08:27:48.577Z,79.63
2017-02-26T08:28:31.289Z,79.63
2017-02-26T08:29:11.917Z,79.73
2017-02-26T08:29:52.494Z,79.92
2017-02-26T08:30:33.119Z,79.83
2017-02-26T08:31:13.758Z,79.44
2017-02-26T08:31:54.414Z,79.25
2017-02-26T08:32:35.080Z,79.44
2017-02-26T08:33:15.751Z,79.25
2017-02-26T08:33:56.386Z,79.35
2017-02-26T08:34:37.062Z,79.54
2017-02-26T08:35:17.708Z,79.16
2017-02-26T08:35:58.312Z,79.06
2017-02-26T08:36:38.955Z,79.06
2017-02-26T08:37:19.621Z,78.78
2017-02-26T08:38:00.280Z,78.88
2017-02-26T08:38:40.889Z,78.97
2017-02-26T08:39:21.553Z,79.06
2017-02-26T08:40:02.205Z,79.06
2017-02-26T08:40:42.857Z,79.16
2017-02-26T08:41:23.501Z,78.78
2017-02-26T08:42:04.169Z,78.5
2017-02-26T08:42:44.824Z,78.4
2017-02-26T08:43:25.416Z,78.59
2017-02-26T08:44:06.063Z,78.69
2017-02-26T08:44:46.678Z,78.44
2017-02-26T08:45:27.362Z,78.44
2017-02-26T08:46:09.045Z,78.34